Saturday, November 17, 2018, 7:36 AM GMT
Back to Local

CWJB, Ste Foy CS , Que.

Location: , , Canada Lat: 47.3
Local Time: 7:36 AM GMT ( 7:36 GMT) Lon: -71.267
Time Zone: GMT Elev: 298 ft

Show me the last for .
Show Coded

Time T Td Feel RH Dir Speed Gust Alt SLP Vis Weather Sky Remarks
2018-11-17 07:00 22 21 15 96 220° 5 - - - 0 None
2018-11-17 06:00 22 21 17 96 220° 3 - - - 0 None
2018-11-17 05:00 24 22 - 91 210° 2 - - - 0 1-hr Precip Total: 0.04"
2018-11-17 04:00 22 21 - 96 210° 1 - - - 0 None
2018-11-17 03:00 22 21 - 96 110° 2 - - - 0 None
2018-11-17 02:00 22 21 16 96 110° 5 - - - 0 1-hr Precip Total: 0.07"
2018-11-17 01:00 22 21 14 95 110° 6 - - - 0 None
2018-11-17 00:00 23 21 13 94 80° 8 - - - 0 None
2018-11-16 23:00 23 22 13 96 80° 9 - - - 0 1-hr Precip Total: 0.04"
2018-11-16 22:00 24 22 14 93 50° 9 - - - 0 Peak wind: 19 mph (17 kts) from 50° at 16 min
2018-11-16 21:00 24 22 9 91 50° 12 21 - - 0 Peak wind: 20 mph (18 kts) from 50° at 54 min
2018-11-16 20:00 23 21 9 92 50° 10 17 - - 0 1-hr Precip Total: 0.05"
2018-11-16 19:00 24 20 9 86 50° 13 18 - - 0 Peak wind: 19 mph (17 kts) from 40° at 22 min
2018-11-16 18:00 24 21 15 89 30° 8 - - - 0 None
2018-11-16 17:00 22 22 12 98 40° 9 - - - 0 Peak wind: 19 mph (17 kts) from 40° at 24 min
2018-11-16 16:00 22 20 7 92 50° 12 20 - - 0 Peak wind: 19 mph (17 kts) from 40° at 54 min
1-hr Precip Total: 0.08"
2018-11-16 15:00 22 21 13 94 50° 8 - - - 0 None
2018-11-16 14:00 22 20 12 94 40° 8 - - - 0 None
2018-11-16 13:00 20 19 11 94 60° 8 - - - 0 1-hr Precip Total: 0.05"
2018-11-16 12:00 20 18 12 92 70° 6 - - - 0 None
2018-11-16 11:00 23 17 15 75 70° 7 - - - 0 None
2018-11-16 10:00 22 19 14 84 70° 7 - - - 0 None
2018-11-16 09:00 22 19 13 88 70° 7 - - - 0 None
2018-11-16 08:00 21 17 15 85 70° 5 - - - 0 None

Support USWX by starting your Amazon purchase here.